createdAt,value
2022-12-19T00:00:13.983Z,74.63
2022-12-19T00:01:22.765Z,75.33
2022-12-19T00:02:24.608Z,74.86
2022-12-19T00:03:27.614Z,75.28
2022-12-19T00:04:29.237Z,75.05
2022-12-19T00:05:31.741Z,75.48
2022-12-19T00:06:34.201Z,75.24
2022-12-19T00:07:37.382Z,75.07
2022-12-19T00:08:42.234Z,75.29
2022-12-19T00:09:43.733Z,75.26
2022-12-19T00:10:55.594Z,75.59
2022-12-19T00:11:57.190Z,75.68
2022-12-19T00:12:59.667Z,75.81
2022-12-19T00:14:01.221Z,75.24
2022-12-19T00:15:04.083Z,75.41
2022-12-19T00:16:08.789Z,75.42
2022-12-19T00:17:11.277Z,75.12
2022-12-19T00:18:13.018Z,75.36
2022-12-19T00:19:15.882Z,75.59
2022-12-19T00:20:26.590Z,75.52
2022-12-19T00:21:34.653Z,75.33
2022-12-19T00:22:38.207Z,75.80
2022-12-19T00:23:42.199Z,75.69
2022-12-19T00:24:43.732Z,76.26
2022-12-19T00:25:46.207Z,75.76
2022-12-19T00:26:49.345Z,75.61
2022-12-19T00:27:51.839Z,76.05
2022-12-19T00:28:55.237Z,75.37
2022-12-19T00:29:59.503Z,76.00
2022-12-19T00:31:01.518Z,75.52
2022-12-19T00:32:04.135Z,75.44
2022-12-19T00:33:05.735Z,75.86
2022-12-19T00:34:08.847Z,75.97
2022-12-19T00:35:10.723Z,76.13
2022-12-19T00:36:15.071Z,75.74
2022-12-19T00:37:18.586Z,76.08
2022-12-19T00:38:22.415Z,75.88
2022-12-19T00:39:24.208Z,75.79
2022-12-19T00:40:26.689Z,76.44
2022-12-19T00:41:30.026Z,76.22
2022-12-19T00:42:32.512Z,76.34
2022-12-19T00:43:34.474Z,75.75
2022-12-19T00:44:36.940Z,76.11
2022-12-19T00:45:38.711Z,75.93
2022-12-19T00:46:41.680Z,76.12
2022-12-19T00:47:43.164Z,76.26
2022-12-19T00:48:45.666Z,76.46
2022-12-19T00:49:47.238Z,76.32
2022-12-19T00:50:51.171Z,76.44
2022-12-19T00:51:53.435Z,76.06
2022-12-19T00:52:56.175Z,76.29
2022-12-19T00:53:59.946Z,76.55
2022-12-19T00:55:03.021Z,76.53
2022-12-19T00:56:12.088Z,76.62
2022-12-19T00:57:15.174Z,76.10
2022-12-19T00:58:21.460Z,75.95
2022-12-19T00:59:34.365Z,76.43
2022-12-19T01:00:35.934Z,76.27
2022-12-19T01:01:41.192Z,76.69
2022-12-19T01:02:43.540Z,76.98
2022-12-19T01:04:18.580Z,77.13
2022-12-19T01:05:18.967Z,76.54
2022-12-19T01:06:21.464Z,76.72
2022-12-19T01:07:24.573Z,76.78
2022-12-19T01:08:26.090Z,76.90
2022-12-19T01:09:31.235Z,76.86
2022-12-19T01:10:32.770Z,76.72
2022-12-19T01:11:53.500Z,76.92
2022-12-19T01:12:56.033Z,76.80
2022-12-19T01:13:57.525Z,76.61
2022-12-19T01:15:05.018Z,77.31
2022-12-19T01:16:10.312Z,77.02
2022-12-19T01:17:12.144Z,77.27
2022-12-19T01:18:14.804Z,76.93
2022-12-19T01:19:16.400Z,77.23
2022-12-19T01:20:29.242Z,77.20
2022-12-19T01:21:31.476Z,77.20
2022-12-19T01:22:33.976Z,77.32
2022-12-19T01:23:36.050Z,77.86
2022-12-19T01:24:39.882Z,77.28
2022-12-19T01:25:43.077Z,77.41
2022-12-19T01:26:48.461Z,77.37
2022-12-19T01:27:49.976Z,77.51
2022-12-19T01:28:52.476Z,77.24
2022-12-19T01:29:53.981Z,77.64
2022-12-19T01:30:56.477Z,77.80
2022-12-19T01:31:58.132Z,77.50
2022-12-19T01:33:01.114Z,77.75
2022-12-19T01:34:02.814Z,77.82
2022-12-19T01:35:06.621Z,77.94
2022-12-19T01:36:12.018Z,77.34
2022-12-19T01:37:17.886Z,78.21
2022-12-19T01:38:20.553Z,77.68
2022-12-19T01:39:23.019Z,77.96
2022-12-19T01:40:28.979Z,77.92
2022-12-19T01:41:31.384Z,78.00
2022-12-19T01:42:36.677Z,77.76
2022-12-19T01:43:56.534Z,77.89
2022-12-19T01:45:37.461Z,78.05
2022-12-19T01:46:45.859Z,78.03
2022-12-19T01:47:53.465Z,77.97
2022-12-19T01:48:56.342Z,78.17
2022-12-19T01:49:58.872Z,78.10
2022-12-19T01:51:02.880Z,78.61
2022-12-19T01:52:08.592Z,78.23
2022-12-19T01:53:13.767Z,78.29
2022-12-19T01:54:20.785Z,78.06
2022-12-19T01:55:22.756Z,78.29
2022-12-19T01:56:30.169Z,78.38
2022-12-19T01:57:31.769Z,78.04
2022-12-19T01:58:38.950Z,78.74
2022-12-19T01:59:45.563Z,78.38
2022-12-19T02:00:48.341Z,78.56
2022-12-19T02:01:55.445Z,78.66
2022-12-19T02:03:01.825Z,78.44
2022-12-19T02:04:03.581Z,78.74
2022-12-19T02:05:06.818Z,78.51
2022-12-19T02:06:09.339Z,78.83
2022-12-19T02:07:15.939Z,78.65
2022-12-19T02:08:18.470Z,78.77
2022-12-19T02:09:21.471Z,78.51
2022-12-19T02:10:23.364Z,78.82
2022-12-19T02:11:27.545Z,78.71
2022-12-19T02:12:33.683Z,79.05
2022-12-19T02:13:37.627Z,79.00
2022-12-19T02:14:41.709Z,79.05
2022-12-19T02:15:51.871Z,79.08
2022-12-19T02:17:15.397Z,78.95
2022-12-19T02:18:34.060Z,79.11
2022-12-19T02:20:05.479Z,79.17
2022-12-19T02:21:33.510Z,79.11
2022-12-19T02:22:51.188Z,79.12
2022-12-19T02:24:41.826Z,79.05
2022-12-19T02:25:58.904Z,78.94
2022-12-19T02:27:15.695Z,78.98
2022-12-19T02:28:32.995Z,79.14
2022-12-19T02:30:08.911Z,78.93
2022-12-19T02:31:18.118Z,79.21
2022-12-19T02:32:27.479Z,78.98
2022-12-19T02:33:36.793Z,79.30
2022-12-19T02:34:44.905Z,79.18
2022-12-19T02:35:54.699Z,79.38
2022-12-19T02:37:03.147Z,79.20
2022-12-19T02:38:15.378Z,79.52
2022-12-19T02:39:24.235Z,79.66
2022-12-19T02:40:32.971Z,79.81
2022-12-19T02:41:44.018Z,79.66
2022-12-19T02:42:51.425Z,79.67
2022-12-19T02:43:59.062Z,79.45
2022-12-19T02:45:03.558Z,79.38
2022-12-19T02:46:08.443Z,79.75
2022-12-19T02:47:13.456Z,79.75
2022-12-19T02:48:19.233Z,79.59
2022-12-19T02:49:30.430Z,79.84
2022-12-19T02:50:38.699Z,79.89
2022-12-19T02:51:40.422Z,79.62
2022-12-19T02:52:48.857Z,79.64
2022-12-19T02:53:50.891Z,79.46
2022-12-19T02:54:57.007Z,79.94
2022-12-19T02:56:22.172Z,79.62
2022-12-19T02:57:30.046Z,79.65
2022-12-19T02:58:43.498Z,79.84
2022-12-19T03:00:03.084Z,79.51
2022-12-19T03:01:30.865Z,79.37
2022-12-19T03:02:49.307Z,79.43
2022-12-19T03:04:16.243Z,79.75
2022-12-19T03:05:26.955Z,79.50
2022-12-19T03:06:35.858Z,79.64
2022-12-19T03:07:44.084Z,79.35
2022-12-19T03:08:52.188Z,79.67
2022-12-19T03:10:04.415Z,79.16
2022-12-19T03:11:09.739Z,79.57
2022-12-19T03:12:17.681Z,79.80
2022-12-19T03:13:24.213Z,79.40
2022-12-19T03:14:27.224Z,79.26
2022-12-19T03:15:29.960Z,79.66
2022-12-19T03:16:34.802Z,79.38
2022-12-19T03:17:39.177Z,79.31
2022-12-19T03:18:41.080Z,79.51
2022-12-19T03:19:43.754Z,79.40
2022-12-19T03:20:49.678Z,79.37
2022-12-19T03:21:53.280Z,79.16
2022-12-19T03:22:54.787Z,79.38
2022-12-19T03:23:58.746Z,79.18
2022-12-19T03:25:01.504Z,79.37
2022-12-19T03:26:06.566Z,79.41
2022-12-19T03:27:12.258Z,79.17
2022-12-19T03:28:21.666Z,79.17
2022-12-19T03:29:29.994Z,79.28
2022-12-19T03:30:34.389Z,79.14
2022-12-19T03:31:38.865Z,79.28
2022-12-19T03:32:44.412Z,79.28
2022-12-19T03:33:51.321Z,79.18
2022-12-19T03:34:57.235Z,79.10
2022-12-19T03:36:05.278Z,79.39
2022-12-19T03:37:12.921Z,79.20
2022-12-19T03:38:19.167Z,79.28
2022-12-19T03:39:25.312Z,79.24
2022-12-19T03:40:29.803Z,79.21
2022-12-19T03:41:51.159Z,79.21
2022-12-19T03:43:09.666Z,79.30
2022-12-19T03:44:17.085Z,79.23
2022-12-19T03:45:25.958Z,79.08
2022-12-19T03:46:28.621Z,79.42
2022-12-19T03:47:38.026Z,79.02
2022-12-19T03:48:44.893Z,79.29
2022-12-19T03:49:48.585Z,79.51
2022-12-19T03:50:59.033Z,79.38
2022-12-19T03:52:10.780Z,79.42
2022-12-19T03:53:25.230Z,79.17
2022-12-19T03:54:31.557Z,79.44
2022-12-19T03:55:38.880Z,79.52
2022-12-19T03:56:46.455Z,79.36
2022-12-19T03:57:56.367Z,79.45
2022-12-19T03:59:03.324Z,79.35
2022-12-19T04:00:07.999Z,79.34
2022-12-19T04:01:14.318Z,79.32
2022-12-19T04:02:17.978Z,79.52
2022-12-19T04:03:22.132Z,79.40
2022-12-19T04:04:26.809Z,79.67
2022-12-19T04:05:30.571Z,79.45
2022-12-19T04:06:34.368Z,79.54
2022-12-19T04:07:38.224Z,79.52
2022-12-19T04:08:40.079Z,79.71
2022-12-19T04:09:44.248Z,79.66
2022-12-19T04:10:50.064Z,79.76
2022-12-19T04:11:55.550Z,79.85
2022-12-19T04:13:01.165Z,79.70
2022-12-19T04:14:07.179Z,79.78
2022-12-19T04:15:12.541Z,79.91
2022-12-19T04:16:22.578Z,79.85
2022-12-19T04:17:34.091Z,79.86
2022-12-19T04:18:38.201Z,80.34
2022-12-19T04:19:47.918Z,80.14
2022-12-19T04:20:56.002Z,80.25
2022-12-19T04:22:05.666Z,80.41
2022-12-19T04:23:15.959Z,80.45
2022-12-19T04:24:23.889Z,80.46
2022-12-19T04:25:30.687Z,80.42
2022-12-19T04:26:34.941Z,80.49
2022-12-19T04:27:41.590Z,80.44
2022-12-19T04:28:47.281Z,80.51
2022-12-19T04:29:52.753Z,80.53
2022-12-19T04:30:54.684Z,80.65
2022-12-19T04:31:57.460Z,80.55
2022-12-19T04:32:59.442Z,80.97
2022-12-19T04:34:01.997Z,80.99
2022-12-19T04:35:05.698Z,80.70
2022-12-19T04:36:08.982Z,81.01
2022-12-19T04:37:13.109Z,81.13
2022-12-19T04:38:14.949Z,81.42
2022-12-19T04:39:17.705Z,81.27
2022-12-19T04:40:19.406Z,81.30
2022-12-19T04:41:21.892Z,81.36
2022-12-19T04:42:23.667Z,81.53
2022-12-19T04:43:26.424Z,81.80
2022-12-19T04:44:27.961Z,81.56
2022-12-19T04:45:31.153Z,81.74
2022-12-19T04:46:35.638Z,81.64
2022-12-19T04:47:38.151Z,81.65
2022-12-19T04:48:39.693Z,81.48
2022-12-19T04:49:42.192Z,81.62
2022-12-19T04:50:45.065Z,81.71
2022-12-19T04:51:47.828Z,81.58
2022-12-19T04:52:53.218Z,81.80
2022-12-19T04:53:58.416Z,81.74
2022-12-19T04:55:00.006Z,81.77
2022-12-19T04:56:03.684Z,81.91
2022-12-19T04:57:06.984Z,81.90
2022-12-19T04:58:15.342Z,82.02
2022-12-19T04:59:23.107Z,81.96
2022-12-19T05:00:26.162Z,82.16
2022-12-19T05:01:27.831Z,82.11
2022-12-19T05:02:30.530Z,82.18
2022-12-19T05:03:33.354Z,82.30
2022-12-19T05:04:35.955Z,82.25
2022-12-19T05:05:46.750Z,82.39
2022-12-19T05:06:50.573Z,82.08
2022-12-19T05:07:53.703Z,82.36
2022-12-19T05:08:56.642Z,82.55
2022-12-19T05:09:58.875Z,82.42
2022-12-19T05:11:02.003Z,82.59
2022-12-19T05:12:03.870Z,82.41
2022-12-19T05:13:06.344Z,82.71
2022-12-19T05:14:07.884Z,82.43
2022-12-19T05:15:11.739Z,82.76
2022-12-19T05:16:13.515Z,82.69
2022-12-19T05:17:16.104Z,82.72
2022-12-19T05:18:17.599Z,82.96
2022-12-19T05:19:20.054Z,82.98
2022-12-19T05:20:21.569Z,83.06
2022-12-19T05:21:25.520Z,83.03
2022-12-19T05:22:27.080Z,83.14
2022-12-19T05:23:29.867Z,83.19
2022-12-19T05:24:31.421Z,83.13
2022-12-19T05:25:33.949Z,83.21
2022-12-19T05:26:35.470Z,83.35
2022-12-19T05:27:37.976Z,83.26
2022-12-19T05:28:39.994Z,83.55
2022-12-19T05:29:42.486Z,83.54
2022-12-19T05:30:49.150Z,83.67
2022-12-19T05:31:54.501Z,83.82
2022-12-19T05:32:56.060Z,83.76
2022-12-19T05:33:58.564Z,83.76
2022-12-19T05:35:00.156Z,83.79
2022-12-19T05:36:03.199Z,83.89
2022-12-19T05:37:06.046Z,83.96
2022-12-19T05:38:08.559Z,84.00
2022-12-19T05:39:11.467Z,84.10
2022-12-19T05:40:14.040Z,84.06
2022-12-19T05:41:17.452Z,84.00
2022-12-19T05:42:20.900Z,84.20
2022-12-19T05:43:24.496Z,84.24
2022-12-19T05:44:28.884Z,84.16
2022-12-19T05:45:31.152Z,84.17
2022-12-19T05:46:35.077Z,84.10
2022-12-19T05:47:38.046Z,84.33
2022-12-19T05:48:42.776Z,84.29
2022-12-19T05:49:44.912Z,84.26
2022-12-19T05:50:51.422Z,84.39
2022-12-19T05:51:53.888Z,84.56
2022-12-19T05:52:56.853Z,84.48
2022-12-19T05:54:01.320Z,84.38
2022-12-19T05:55:02.993Z,84.53
2022-12-19T05:56:08.622Z,84.63
2022-12-19T05:57:10.684Z,84.71
2022-12-19T05:58:15.525Z,84.73
2022-12-19T05:59:18.584Z,84.80
2022-12-19T06:00:21.960Z,84.68
2022-12-19T06:01:25.853Z,84.80
2022-12-19T06:02:28.664Z,84.82
2022-12-19T06:03:30.438Z,84.89
2022-12-19T06:04:33.166Z,84.81
2022-12-19T06:05:37.861Z,84.92
2022-12-19T06:06:40.435Z,84.85
2022-12-19T06:07:41.974Z,84.98
2022-12-19T06:08:46.074Z,85.23
2022-12-19T06:09:47.737Z,84.98
2022-12-19T06:10:50.376Z,85.08
2022-12-19T06:11:52.933Z,85.07
2022-12-19T06:12:54.471Z,85.15
2022-12-19T06:13:57.709Z,85.29
2022-12-19T06:15:00.122Z,85.17
2022-12-19T06:16:14.584Z,85.25
2022-12-19T06:17:16.228Z,85.25
2022-12-19T06:18:18.728Z,85.31
2022-12-19T06:19:20.208Z,85.33
2022-12-19T06:20:23.887Z,85.39
2022-12-19T06:21:25.684Z,85.37
2022-12-19T06:22:28.198Z,85.36
2022-12-19T06:23:31.397Z,85.52
2022-12-19T06:24:35.180Z,85.42
2022-12-19T06:25:36.701Z,85.52
2022-12-19T06:26:39.846Z,85.50
2022-12-19T06:27:42.511Z,85.60
2022-12-19T06:28:45.072Z,85.41
2022-12-19T06:29:46.566Z,85.54
2022-12-19T06:30:49.089Z,85.71
2022-12-19T06:31:51.649Z,85.62
2022-12-19T06:32:53.168Z,85.72
2022-12-19T06:33:56.712Z,85.85
2022-12-19T06:35:05.411Z,85.85
2022-12-19T06:36:11.355Z,85.82
2022-12-19T06:37:13.004Z,85.82
2022-12-19T06:38:15.545Z,85.85
2022-12-19T06:39:28.045Z,85.87
2022-12-19T06:41:01.438Z,85.86
2022-12-19T06:42:25.377Z,85.87
2022-12-19T06:43:28.779Z,85.98
2022-12-19T06:44:31.765Z,86.08
2022-12-19T06:45:34.256Z,86.04
2022-12-19T06:46:36.408Z,86.10
2022-12-19T06:47:38.891Z,86.04
2022-12-19T06:48:40.408Z,86.14
2022-12-19T06:49:42.889Z,86.24
2022-12-19T06:50:44.420Z,86.26
2022-12-19T06:51:47.052Z,86.13
2022-12-19T06:52:48.689Z,86.18
2022-12-19T06:53:52.145Z,86.35
2022-12-19T06:54:54.743Z,86.37
2022-12-19T06:55:59.507Z,86.20
2022-12-19T06:57:02.224Z,86.34
2022-12-19T06:58:04.182Z,86.35
2022-12-19T06:59:08.289Z,86.20
2022-12-19T07:00:11.937Z,86.32
2022-12-19T07:01:20.591Z,86.55
2022-12-19T07:02:29.405Z,86.64
2022-12-19T07:03:38.811Z,86.51
2022-12-19T07:04:44.429Z,86.39
2022-12-19T07:05:47.085Z,86.61
2022-12-19T07:06:49.422Z,86.34
2022-12-19T07:07:52.028Z,86.49
2022-12-19T07:08:53.622Z,86.51
2022-12-19T07:09:56.129Z,86.62
2022-12-19T07:11:00.656Z,86.70
2022-12-19T07:12:02.812Z,86.43
2022-12-19T07:13:05.405Z,86.83
2022-12-19T07:14:09.047Z,86.73
2022-12-19T07:15:14.917Z,86.75
2022-12-19T07:16:17.442Z,86.80
2022-12-19T07:17:21.884Z,86.93
2022-12-19T07:18:23.489Z,86.80
2022-12-19T07:19:28.365Z,86.92
2022-12-19T07:20:34.107Z,86.93
2022-12-19T07:21:36.258Z,86.90
2022-12-19T07:22:38.954Z,87.04
2022-12-19T07:23:42.083Z,87.04
2022-12-19T07:24:43.856Z,87.05
2022-12-19T07:25:46.411Z,87.01
2022-12-19T07:26:50.396Z,86.97
2022-12-19T07:27:53.464Z,86.95
2022-12-19T07:28:55.242Z,87.11
2022-12-19T07:29:57.718Z,87.28
2022-12-19T07:30:59.260Z,87.19
2022-12-19T07:32:01.846Z,87.32
2022-12-19T07:33:03.656Z,87.21
2022-12-19T07:34:06.189Z,87.37
2022-12-19T07:35:08.529Z,87.13
2022-12-19T07:36:11.408Z,87.47
2022-12-19T07:37:14.048Z,87.21
2022-12-19T07:38:16.628Z,87.37
2022-12-19T07:39:19.178Z,87.30
2022-12-19T07:40:22.429Z,87.29
2022-12-19T07:41:25.072Z,87.38
2022-12-19T07:42:32.498Z,87.41
2022-12-19T07:43:35.967Z,87.17
2022-12-19T07:44:38.852Z,87.54
2022-12-19T07:45:41.004Z,87.47
2022-12-19T07:46:44.691Z,87.32
2022-12-19T07:47:47.871Z,87.29
2022-12-19T07:48:51.544Z,87.55
2022-12-19T07:50:04.480Z,87.38
2022-12-19T07:51:07.312Z,87.66
2022-12-19T07:52:09.803Z,87.60
2022-12-19T07:53:11.407Z,87.48
2022-12-19T07:54:13.929Z,87.41
2022-12-19T07:55:15.839Z,87.86
2022-12-19T07:56:28.965Z,87.79
2022-12-19T07:57:42.776Z,87.82
2022-12-19T07:58:45.083Z,87.67
2022-12-19T07:59:47.608Z,87.72
2022-12-19T08:01:01.281Z,88.02
2022-12-19T08:02:04.109Z,87.77
2022-12-19T08:03:06.800Z,87.74
2022-12-19T08:04:10.480Z,87.77
2022-12-19T08:05:13.808Z,87.69
2022-12-19T08:06:16.571Z,87.91
2022-12-19T08:07:19.064Z,87.76
2022-12-19T08:08:21.363Z,87.74
2022-12-19T08:09:28.927Z,88.02
2022-12-19T08:10:30.846Z,87.84
2022-12-19T08:11:33.348Z,87.77
2022-12-19T08:12:35.056Z,87.89
2022-12-19T08:13:44.798Z,87.66
2022-12-19T08:14:52.803Z,87.83
2022-12-19T08:16:01.153Z,87.84
2022-12-19T08:18:25.907Z,87.83
2022-12-19T08:19:28.485Z,87.68
2022-12-19T08:20:31.160Z,87.99
2022-12-19T08:21:32.678Z,87.96
2022-12-19T08:22:35.572Z,88.09
2022-12-19T08:23:38.950Z,87.83
2022-12-19T08:24:40.549Z,87.84
2022-12-19T08:25:45.118Z,88.02
2022-12-19T08:26:47.977Z,87.88
2022-12-19T08:28:00.565Z,88.03
2022-12-19T08:29:14.432Z,88.01
2022-12-19T08:30:19.805Z,88.13
2022-12-19T08:31:25.231Z,88.05
2022-12-19T08:32:27.261Z,87.91
2022-12-19T08:33:29.889Z,87.82
2022-12-19T08:34:32.792Z,87.78
2022-12-19T08:35:37.002Z,88.04
2022-12-19T08:36:39.597Z,88.13
2022-12-19T08:37:42.114Z,87.99
2022-12-19T08:38:44.426Z,88.04
2022-12-19T08:39:47.067Z,87.96
2022-12-19T08:40:54.379Z,87.99
2022-12-19T08:41:57.194Z,87.96
2022-12-19T08:42:59.956Z,87.79
2022-12-19T08:44:02.754Z,88.07
2022-12-19T08:45:08.189Z,88.01
2022-12-19T08:46:11.039Z,87.86
2022-12-19T08:47:12.657Z,88.07
2022-12-19T08:48:15.287Z,87.99
2022-12-19T08:49:17.461Z,88.16
2022-12-19T08:50:20.860Z,87.81
2022-12-19T08:51:24.452Z,88.12
2022-12-19T08:52:35.991Z,88.09
2022-12-19T08:53:48.708Z,87.83
2022-12-19T08:54:52.797Z,88.33
2022-12-19T08:55:56.294Z,87.91
2022-12-19T08:56:59.161Z,88.04
2022-12-19T08:58:01.782Z,88.14
2022-12-19T08:59:04.841Z,88.23
2022-12-19T09:00:09.711Z,88.10
2022-12-19T09:01:19.137Z,87.80
2022-12-19T09:02:22.072Z,88.21
2022-12-19T09:03:24.122Z,88.20
2022-12-19T09:05:35.826Z,88.25
2022-12-19T09:06:04.062Z,88.09
2022-12-19T09:07:09.578Z,88.07
2022-12-19T09:08:11.183Z,88.07
2022-12-19T09:09:13.753Z,88.18
2022-12-19T09:10:16.572Z,87.88
2022-12-19T09:11:20.715Z,87.96
2022-12-19T09:12:23.263Z,88.27
2022-12-19T09:13:25.896Z,88.13
2022-12-19T09:14:28.419Z,88.47
2022-12-19T09:15:31.532Z,88.35
2022-12-19T09:16:34.515Z,88.00
2022-12-19T09:17:37.267Z,88.12
2022-12-19T09:18:47.908Z,88.38
2022-12-19T09:19:51.345Z,88.10
2022-12-19T09:20:56.969Z,88.18
2022-12-19T09:22:09.608Z,88.33
2022-12-19T09:23:13.194Z,88.08
2022-12-19T09:24:15.669Z,88.13
2022-12-19T09:25:17.452Z,88.17
2022-12-19T09:26:21.048Z,88.02
2022-12-19T09:27:24.802Z,88.05
2022-12-19T09:28:28.177Z,88.34
2022-12-19T09:29:35.306Z,88.01
2022-12-19T09:30:39.691Z,88.05
2022-12-19T09:31:41.300Z,88.41
2022-12-19T09:32:43.789Z,87.94
2022-12-19T09:33:46.622Z,88.21
2022-12-19T09:34:49.183Z,88.04
2022-12-19T09:35:52.441Z,88.01
2022-12-19T09:36:57.170Z,88.13
2022-12-19T09:38:00.532Z,87.95
2022-12-19T09:39:03.666Z,88.30
2022-12-19T09:40:07.445Z,88.00
2022-12-19T09:41:39.909Z,88.01
2022-12-19T09:43:04.285Z,88.18
2022-12-19T09:44:18.985Z,88.26
2022-12-19T09:45:47.843Z,88.06
2022-12-19T09:46:52.415Z,88.32
2022-12-19T09:47:58.708Z,88.02
2022-12-19T09:49:02.920Z,88.07
2022-12-19T09:50:23.861Z,88.37
2022-12-19T09:51:36.027Z,88.13
2022-12-19T09:52:43.166Z,88.36
2022-12-19T09:53:59.538Z,88.29
2022-12-19T09:55:05.658Z,88.32
2022-12-19T09:56:13.707Z,88.39
2022-12-19T09:57:36.637Z,88.42
2022-12-19T09:58:55.212Z,88.25
2022-12-19T10:00:01.918Z,87.88
